Watkins, Iowa
Current Conditions -  °F | °C
As of 12:52 PM on Friday 28 Nov 2014 (Local Time) from KCID Reporting Station
Clear Clear  
Wind Chill: -6°   Ceiling: Unl
Heat Index: -2°   Visibility: 8mi
Dew Point: -5°   Wind: 8mph
Humidity: 78%   Direction: 140°SE
Pressure: 29.91"   Gusts: NA
Location:  41.89°N, 91.99°W
Report Text: KCID 281852Z 14007KT 8SM CLR M02/M05 A2991 RMK AO2 SLP141 T10171050
Loading
Personal Weather Stations






























Interactive Weather Map New forecast layout! Learn more

10-Day Weather Forecast

Advertisements
Track Severe Weather on mobile